Caraquet, Canada
Current Conditions -  °F | °C
As of 10:00 AM on Saturday 20 Dec 2014 (Local Time) from CZBF Reporting Station
Light Snow Light Snow  
Wind Chill: -10°   Ceiling: 1200
Heat Index: -6°   Visibility: 10mi
Dew Point: -8°   Wind: 6mph
Humidity: 86%   Direction: 320°NW
Pressure: 30.35"   Gusts: NA
Location:  47.78°N, 64.95°W
Report Text: CZBF 201400Z 32005KT 10SM -SG OVC012 M06/M08 A3035 RMK ST8 SLP281
Loading
Personal Weather Stations






























Interactive Weather Map New forecast layout! Learn more

10-Day Weather Forecast

Advertisements
Track Severe Weather on mobile